createdAt,value
2022-10-07T00:00:52.297Z,2.05
2022-10-07T00:03:25.797Z,1.50
2022-10-07T00:06:10.807Z,2.13
2022-10-07T00:08:38.959Z,1.30
2022-10-07T00:11:08.598Z,1.75
2022-10-07T00:13:38.744Z,1.90
2022-10-07T00:16:13.825Z,2.20
2022-10-07T00:18:41.780Z,1.83
2022-10-07T00:21:11.877Z,1.50
2022-10-07T00:23:39.497Z,1.40
2022-10-07T00:26:08.951Z,1.98
2022-10-07T00:28:36.423Z,1.63
2022-10-07T00:31:06.505Z,1.40
2022-10-07T00:33:36.668Z,1.40
2022-10-07T00:36:11.489Z,2.08
2022-10-07T00:38:38.869Z,1.85
2022-10-07T00:41:06.884Z,1.58
2022-10-07T00:43:34.093Z,1.83
2022-10-07T00:46:07.803Z,1.45
2022-10-07T00:48:36.542Z,2.38
2022-10-07T00:51:03.326Z,2.20
2022-10-07T00:53:33.123Z,2.47
2022-10-07T00:56:02.768Z,2.10
2022-10-07T00:58:32.394Z,2.00
2022-10-07T01:00:59.287Z,2.20
2022-10-07T01:03:26.126Z,1.80
2022-10-07T01:05:54.678Z,1.90
2022-10-07T01:08:22.963Z,2.72
2022-10-07T01:11:13.892Z,1.95
2022-10-07T01:14:24.070Z,2.10
2022-10-07T01:16:53.647Z,2.42
2022-10-07T01:19:53.141Z,2.90
2022-10-07T01:22:40.628Z,3.03
2022-10-07T01:25:33.476Z,1.73
2022-10-07T01:28:12.448Z,2.50
2022-10-07T01:30:46.689Z,2.65
2022-10-07T01:33:21.752Z,2.83
2022-10-07T01:35:51.123Z,2.25
2022-10-07T01:38:19.817Z,2.78
2022-10-07T01:40:51.987Z,2.33
2022-10-07T01:43:22.040Z,2.30
2022-10-07T01:45:52.085Z,3.13
2022-10-07T01:48:18.782Z,2.30
2022-10-07T01:50:46.968Z,2.70
2022-10-07T01:53:15.224Z,3.58
2022-10-07T01:55:48.129Z,2.55
2022-10-07T01:58:49.695Z,2.20
2022-10-07T02:01:22.906Z,3.08
2022-10-07T02:04:05.194Z,2.35
2022-10-07T02:06:40.180Z,2.80
2022-10-07T02:09:36.772Z,2.50
2022-10-07T02:12:17.682Z,2.30
2022-10-07T02:15:00.497Z,2.25
2022-10-07T02:17:29.524Z,2.47
2022-10-07T02:19:56.527Z,2.35
2022-10-07T02:22:28.306Z,1.70
2022-10-07T02:24:59.130Z,1.80
2022-10-07T02:27:36.969Z,2.45
2022-10-07T02:30:10.284Z,1.70
2022-10-07T02:32:41.153Z,1.92
2022-10-07T02:35:17.371Z,2.22
2022-10-07T02:37:48.020Z,2.75
2022-10-07T02:40:15.213Z,2.45
2022-10-07T02:43:00.752Z,2.28
2022-10-07T02:45:37.481Z,2.47
2022-10-07T02:48:18.880Z,2.08
2022-10-07T02:50:49.760Z,2.28
2022-10-07T02:53:18.018Z,2.30
2022-10-07T02:55:48.696Z,1.80
2022-10-07T02:58:16.834Z,2.25
2022-10-07T03:00:50.872Z,1.85
2022-10-07T03:03:17.650Z,1.25
2022-10-07T03:05:54.962Z,2.20
2022-10-07T03:08:23.960Z,2.00
2022-10-07T03:10:51.325Z,1.92
2022-10-07T03:13:18.453Z,2.28
2022-10-07T03:15:51.895Z,1.88
2022-10-07T03:18:26.432Z,2.00
2022-10-07T03:21:00.148Z,1.80
2022-10-07T03:23:29.150Z,1.85
2022-10-07T03:25:58.112Z,2.08
2022-10-07T03:28:26.909Z,2.20
2022-10-07T03:30:54.883Z,2.40
2022-10-07T03:33:25.666Z,2.33
2022-10-07T03:35:53.840Z,1.98
2022-10-07T03:38:21.335Z,2.10
2022-10-07T03:40:48.016Z,2.05
2022-10-07T03:43:14.678Z,2.08
2022-10-07T03:45:45.599Z,1.88
2022-10-07T03:48:12.601Z,2.05
2022-10-07T03:50:39.582Z,1.80
2022-10-07T03:53:06.208Z,2.08
2022-10-07T03:55:32.777Z,1.95
2022-10-07T03:57:59.961Z,1.75
2022-10-07T04:00:28.904Z,1.83
2022-10-07T04:02:57.938Z,1.55
2022-10-07T04:05:24.648Z,1.90
2022-10-07T04:07:52.175Z,1.92
2022-10-07T04:10:20.382Z,1.50
2022-10-07T04:12:48.878Z,1.90
2022-10-07T04:15:15.807Z,1.65
2022-10-07T04:17:45.661Z,2.03
2022-10-07T04:20:15.575Z,1.58
2022-10-07T04:22:43.263Z,1.65
2022-10-07T04:25:30.921Z,1.52
2022-10-07T04:28:01.695Z,2.00
2022-10-07T04:30:33.714Z,2.15
2022-10-07T04:33:04.120Z,2.28
2022-10-07T04:35:31.680Z,1.88
2022-10-07T04:37:58.642Z,1.83
2022-10-07T04:40:28.122Z,1.73
2022-10-07T04:43:13.911Z,1.90
2022-10-07T04:45:40.699Z,1.77
2022-10-07T04:48:08.482Z,1.30
2022-10-07T04:50:40.570Z,1.50
2022-10-07T04:53:10.646Z,1.40
2022-10-07T04:55:39.826Z,1.75
2022-10-07T04:58:07.417Z,1.50
2022-10-07T05:00:35.811Z,1.42
2022-10-07T05:03:03.347Z,1.63
2022-10-07T05:05:30.054Z,1.60
2022-10-07T05:07:56.793Z,1.98
2022-10-07T05:10:25.672Z,1.15
2022-10-07T05:12:55.866Z,2.00
2022-10-07T05:15:23.546Z,1.75
2022-10-07T05:17:51.711Z,1.40
2022-10-07T05:20:18.433Z,1.60
2022-10-07T05:22:45.148Z,1.85
2022-10-07T05:25:11.744Z,1.83
2022-10-07T05:27:38.989Z,1.70
2022-10-07T05:30:07.310Z,1.42
2022-10-07T05:32:33.824Z,1.77
2022-10-07T05:35:01.733Z,1.77
2022-10-07T05:37:28.335Z,1.55
2022-10-07T05:39:55.045Z,1.67
2022-10-07T05:42:22.614Z,2.35
2022-10-07T05:44:55.906Z,1.75
2022-10-07T05:47:22.767Z,2.22
2022-10-07T05:49:51.480Z,2.20
2022-10-07T05:52:19.429Z,1.95
2022-10-07T05:54:46.616Z,1.98
2022-10-07T05:57:13.922Z,1.98
2022-10-07T05:59:42.505Z,1.80
2022-10-07T06:02:14.519Z,2.28
2022-10-07T06:04:43.285Z,2.78
2022-10-07T06:07:11.186Z,1.95
2022-10-07T06:09:57.412Z,1.95
2022-10-07T06:12:42.867Z,2.13
2022-10-07T06:15:13.166Z,2.08
2022-10-07T06:17:44.789Z,1.95
2022-10-07T06:20:15.086Z,2.50
2022-10-07T06:22:44.120Z,1.85
2022-10-07T06:25:12.048Z,1.98
2022-10-07T06:27:38.700Z,1.92
2022-10-07T06:30:05.982Z,1.98
2022-10-07T06:32:32.671Z,2.10
2022-10-07T06:34:59.931Z,2.88
2022-10-07T06:37:30.796Z,2.40
2022-10-07T06:39:59.750Z,3.40
2022-10-07T06:42:28.470Z,1.83
2022-10-07T06:45:17.676Z,2.58
2022-10-07T06:47:45.138Z,2.28
2022-10-07T06:50:12.940Z,2.03
2022-10-07T06:52:43.291Z,1.73
2022-10-07T06:55:11.474Z,1.77
2022-10-07T06:57:45.633Z,1.92
2022-10-07T07:02:41.290Z,2.15
2022-10-07T07:05:08.971Z,2.20
2022-10-07T07:07:37.074Z,1.77
2022-10-07T07:10:03.949Z,1.65
2022-10-07T07:12:33.217Z,1.90
2022-10-07T07:15:00.284Z,2.22
2022-10-07T07:17:26.885Z,1.27
2022-10-07T07:19:53.713Z,1.85
2022-10-07T07:22:20.220Z,3.17
2022-10-07T07:24:48.741Z,2.03
2022-10-07T07:27:15.627Z,2.53
2022-10-07T07:29:43.474Z,1.85
2022-10-07T07:32:10.964Z,2.78
2022-10-07T07:34:41.324Z,2.05
2022-10-07T07:37:10.841Z,2.25
2022-10-07T07:39:44.447Z,1.63
2022-10-07T07:42:14.560Z,1.67
2022-10-07T07:44:41.317Z,2.03
2022-10-07T07:47:10.771Z,1.67
2022-10-07T07:49:38.426Z,1.98
2022-10-07T07:52:08.418Z,1.95
2022-10-07T07:54:41.875Z,1.52
2022-10-07T07:57:08.684Z,1.83
2022-10-07T07:59:37.339Z,1.67
2022-10-07T08:02:06.131Z,1.55
2022-10-07T08:04:33.728Z,1.67
2022-10-07T08:07:00.715Z,1.52
2022-10-07T08:09:28.316Z,1.90
2022-10-07T08:11:56.218Z,1.45
2022-10-07T08:14:23.417Z,1.23
2022-10-07T08:16:51.968Z,1.50
2022-10-07T08:19:19.347Z,1.02
2022-10-07T08:21:46.077Z,2.10
2022-10-07T08:24:17.557Z,1.77
2022-10-07T08:26:44.671Z,1.90
2022-10-07T08:29:13.529Z,1.80
2022-10-07T08:31:42.363Z,1.60
2022-10-07T08:34:10.301Z,1.42
2022-10-07T08:36:37.445Z,1.33
2022-10-07T08:39:04.710Z,1.50
2022-10-07T08:41:34.243Z,1.98
2022-10-07T08:44:16.660Z,1.77
2022-10-07T08:46:54.389Z,2.17
2022-10-07T08:49:32.619Z,1.20
2022-10-07T08:52:32.711Z,1.65
2022-10-07T08:55:04.105Z,1.20
2022-10-07T08:57:54.801Z,1.42
2022-10-07T09:00:24.810Z,1.30
2022-10-07T09:03:13.229Z,1.27
2022-10-07T09:05:44.536Z,1.20
2022-10-07T09:08:37.539Z,2.00
2022-10-07T09:11:16.995Z,1.08
2022-10-07T09:13:58.012Z,2.03
2022-10-07T09:16:35.908Z,0.77
2022-10-07T09:19:04.017Z,1.60
2022-10-07T09:21:42.381Z,1.58
2022-10-07T09:24:23.124Z,1.30
2022-10-07T09:26:54.166Z,1.25
2022-10-07T09:29:24.357Z,1.33
2022-10-07T09:31:51.009Z,1.58
2022-10-07T09:34:24.956Z,1.45
2022-10-07T09:37:13.020Z,1.63
2022-10-07T09:39:40.878Z,1.13
2022-10-07T09:42:28.698Z,1.40
2022-10-07T09:44:58.782Z,1.48
2022-10-07T09:47:29.136Z,1.40
2022-10-07T09:49:59.672Z,0.98
2022-10-07T09:52:31.639Z,1.80
2022-10-07T09:55:31.670Z,1.00
2022-10-07T09:58:04.058Z,1.60
2022-10-07T10:00:31.025Z,1.95
2022-10-07T10:03:00.157Z,1.60
2022-10-07T10:05:33.205Z,1.20
2022-10-07T10:08:03.342Z,1.10
2022-10-07T10:10:35.008Z,1.38
2022-10-07T10:13:04.624Z,1.33
2022-10-07T10:15:44.389Z,1.27
2022-10-07T10:18:36.347Z,1.15
2022-10-07T10:21:40.733Z,2.08
2022-10-07T10:24:16.832Z,1.70
2022-10-07T10:26:53.738Z,1.52
2022-10-07T10:29:27.921Z,1.40
2022-10-07T10:32:00.482Z,1.63
2022-10-07T10:34:48.337Z,1.25
2022-10-07T10:37:32.163Z,1.27
2022-10-07T10:40:19.066Z,2.13
2022-10-07T10:43:06.777Z,1.67
2022-10-07T10:46:01.955Z,1.60
2022-10-07T10:48:34.453Z,1.27
2022-10-07T10:51:16.901Z,1.00
2022-10-07T10:54:10.252Z,1.23
2022-10-07T10:56:55.015Z,1.45
2022-10-07T10:59:44.684Z,1.38
2022-10-07T11:02:14.261Z,1.65
2022-10-07T11:04:50.122Z,1.55
2022-10-07T11:08:01.683Z,1.75
2022-10-07T11:10:46.519Z,1.25
2022-10-07T11:13:13.075Z,0.90
2022-10-07T11:15:45.724Z,2.03
2022-10-07T11:18:21.726Z,1.48
2022-10-07T11:20:50.249Z,1.10
2022-10-07T11:23:37.540Z,1.42
2022-10-07T11:26:23.787Z,1.20
2022-10-07T11:28:51.899Z,1.23
2022-10-07T11:31:32.447Z,1.27
2022-10-07T11:34:18.432Z,1.27
2022-10-07T11:39:18.998Z,1.58
2022-10-07T11:42:04.060Z,1.38
2022-10-07T11:44:37.325Z,1.85
2022-10-07T11:47:11.231Z,1.25
2022-10-07T11:49:44.849Z,1.63
2022-10-07T11:52:37.199Z,1.30
2022-10-07T11:55:15.952Z,1.20
2022-10-07T11:57:43.566Z,1.45
2022-10-07T12:00:30.260Z,1.40
2022-10-07T12:03:11.154Z,1.35
2022-10-07T12:05:37.760Z,1.83
2022-10-07T12:08:29.313Z,1.40
2022-10-07T12:11:15.875Z,1.58
2022-10-07T12:13:47.615Z,1.60
2022-10-07T12:16:23.369Z,1.67
2022-10-07T12:19:06.176Z,1.30
2022-10-07T12:22:16.143Z,1.48
2022-10-07T12:24:45.896Z,1.20
2022-10-07T12:27:24.727Z,1.23
2022-10-07T12:30:02.236Z,1.75
2022-10-07T12:32:51.013Z,2.10
2022-10-07T12:35:34.446Z,1.50
2022-10-07T12:38:28.582Z,1.40
2022-10-07T12:41:17.757Z,1.90
2022-10-07T12:43:49.896Z,1.77
2022-10-07T12:46:19.867Z,1.63
2022-10-07T12:49:04.941Z,2.30
2022-10-07T12:51:39.317Z,1.30
2022-10-07T12:54:51.431Z,1.17
2022-10-07T12:57:21.268Z,1.17
2022-10-07T13:00:07.976Z,1.10
2022-10-07T13:03:08.452Z,0.80
2022-10-07T13:05:37.903Z,1.42
2022-10-07T13:08:33.026Z,1.50
2022-10-07T13:11:30.525Z,0.90
2022-10-07T13:14:03.262Z,1.08
2022-10-07T13:16:38.695Z,1.50
2022-10-07T13:22:09.381Z,1.70
2022-10-07T13:24:40.463Z,1.17
2022-10-07T13:27:09.796Z,1.33
2022-10-07T13:29:38.650Z,1.10
2022-10-07T13:32:09.718Z,1.10
2022-10-07T13:34:36.589Z,1.13
2022-10-07T13:37:23.626Z,1.52
2022-10-07T13:39:50.182Z,1.55
2022-10-07T13:42:21.130Z,1.25
2022-10-07T13:44:48.082Z,1.00
2022-10-07T13:47:20.360Z,1.83
2022-10-07T13:49:51.115Z,1.02
2022-10-07T13:52:31.518Z,1.33
2022-10-07T13:54:58.174Z,1.23
2022-10-07T13:57:29.108Z,1.20
2022-10-07T13:59:56.590Z,0.73
2022-10-07T14:02:23.336Z,1.30
2022-10-07T14:04:56.396Z,1.00
2022-10-07T14:07:23.176Z,1.02
2022-10-07T14:09:58.679Z,1.02
2022-10-07T14:15:06.259Z,2.13
2022-10-07T14:17:47.309Z,0.77
2022-10-07T14:20:40.885Z,1.10
2022-10-07T14:23:33.724Z,0.77
2022-10-07T14:26:04.077Z,1.13
2022-10-07T14:28:35.579Z,0.90
2022-10-07T14:31:26.993Z,1.20
2022-10-07T14:34:15.609Z,1.45
2022-10-07T14:37:01.355Z,1.27
2022-10-07T14:39:38.565Z,0.55
2022-10-07T14:42:10.209Z,1.08
2022-10-07T14:44:37.257Z,0.90
2022-10-07T14:47:04.665Z,1.27
2022-10-07T14:49:31.627Z,0.85
2022-10-07T14:51:59.346Z,0.80
2022-10-07T14:54:26.752Z,1.08
2022-10-07T14:56:53.321Z,1.10
2022-10-07T14:59:20.020Z,1.30
2022-10-07T15:01:46.992Z,1.17
2022-10-07T15:04:13.669Z,1.30
2022-10-07T15:06:40.661Z,1.80
2022-10-07T15:09:09.398Z,1.52
2022-10-07T15:11:36.029Z,1.42
2022-10-07T15:14:02.984Z,1.75
2022-10-07T15:16:29.764Z,1.20
2022-10-07T15:18:56.376Z,1.52
2022-10-07T15:21:23.461Z,1.10
2022-10-07T15:23:53.979Z,1.70
2022-10-07T15:26:24.411Z,1.30
2022-10-07T15:28:56.967Z,1.00
2022-10-07T15:31:26.539Z,1.25
2022-10-07T15:33:57.494Z,1.65
2022-10-07T15:36:25.366Z,1.52
2022-10-07T15:38:51.914Z,1.30
2022-10-07T15:41:37.216Z,1.35
2022-10-07T15:44:18.197Z,1.40
2022-10-07T15:46:47.454Z,1.02
2022-10-07T15:49:14.809Z,1.20
2022-10-07T15:51:41.470Z,1.67
2022-10-07T15:54:09.151Z,0.93
2022-10-07T15:56:35.935Z,1.10
2022-10-07T15:59:02.803Z,1.23
2022-10-07T16:01:31.933Z,0.88
2022-10-07T16:04:00.351Z,1.10
2022-10-07T16:06:31.241Z,1.35
2022-10-07T16:08:58.341Z,1.38
2022-10-07T16:11:26.725Z,0.95
2022-10-07T16:13:53.399Z,1.45
2022-10-07T16:16:22.847Z,1.67
2022-10-07T16:18:52.105Z,1.17
2022-10-07T16:21:24.156Z,1.27
2022-10-07T16:23:54.442Z,1.60
2022-10-07T16:26:24.517Z,1.20
2022-10-07T16:29:11.162Z,1.27
2022-10-07T16:31:43.011Z,1.10
2022-10-07T16:34:11.396Z,1.33
2022-10-07T16:36:42.109Z,1.75
2022-10-07T16:39:11.592Z,1.17
2022-10-07T16:41:41.490Z,1.58
2022-10-07T16:44:08.306Z,1.00
2022-10-07T16:46:34.890Z,1.00
2022-10-07T16:49:04.648Z,1.17
2022-10-07T16:51:36.091Z,1.13
2022-10-07T16:54:05.907Z,1.35
2022-10-07T16:56:35.090Z,1.00
2022-10-07T16:59:06.138Z,1.80
2022-10-07T17:01:33.253Z,1.20
2022-10-07T17:04:01.336Z,1.33
2022-10-07T17:06:30.205Z,1.25
2022-10-07T17:08:59.792Z,1.27
2022-10-07T17:11:29.562Z,1.40
2022-10-07T17:14:01.959Z,1.52
2022-10-07T17:16:32.592Z,1.23
2022-10-07T17:18:59.706Z,1.52
2022-10-07T17:21:26.323Z,1.52
2022-10-07T17:23:58.097Z,1.20
2022-10-07T17:26:26.794Z,1.67
2022-10-07T17:29:13.647Z,1.88
2022-10-07T17:31:48.089Z,1.33
2022-10-07T17:34:19.252Z,1.50
2022-10-07T17:36:45.972Z,1.42
2022-10-07T17:39:12.575Z,1.52
2022-10-07T17:41:39.392Z,1.30
2022-10-07T17:44:11.545Z,1.23
2022-10-07T17:46:39.608Z,1.73
2022-10-07T17:49:08.375Z,1.42
2022-10-07T17:51:36.932Z,1.27
2022-10-07T17:54:05.811Z,1.48
2022-10-07T17:56:32.910Z,1.35
2022-10-07T17:58:59.606Z,1.48
2022-10-07T18:01:28.710Z,1.23
2022-10-07T18:03:57.814Z,1.08
2022-10-07T18:06:28.725Z,1.27
2022-10-07T18:08:55.862Z,1.35
2022-10-07T18:11:22.413Z,1.40
2022-10-07T18:14:07.508Z,1.50
2022-10-07T18:16:35.663Z,1.13
2022-10-07T18:19:02.527Z,1.52
2022-10-07T18:21:30.986Z,1.75
2022-10-07T18:23:57.989Z,2.20
2022-10-07T18:26:24.771Z,2.05
2022-10-07T18:28:51.443Z,1.90
2022-10-07T18:31:19.662Z,2.53
2022-10-07T18:33:46.512Z,2.15
2022-10-07T18:36:19.166Z,3.40
2022-10-07T18:38:45.965Z,2.20
2022-10-07T18:41:15.783Z,2.95
2022-10-07T18:43:45.269Z,3.13
2022-10-07T18:46:15.942Z,3.28
2022-10-07T18:48:44.983Z,2.67
2022-10-07T18:51:13.193Z,3.08
2022-10-07T18:53:42.792Z,2.78
2022-10-07T18:56:21.642Z,2.28
2022-10-07T18:58:50.789Z,2.35
2022-10-07T19:01:26.697Z,2.20
2022-10-07T19:04:01.113Z,1.98
2022-10-07T19:06:29.927Z,2.70
2022-10-07T19:08:58.925Z,2.58
2022-10-07T19:11:26.012Z,2.45
2022-10-07T19:13:58.123Z,2.97
2022-10-07T19:16:36.152Z,2.30
2022-10-07T19:19:06.255Z,3.50
2022-10-07T19:21:34.175Z,3.00
2022-10-07T19:24:01.628Z,1.98
2022-10-07T19:26:31.541Z,2.70
2022-10-07T19:28:58.273Z,3.08
2022-10-07T19:31:30.777Z,2.80
2022-10-07T19:34:02.771Z,3.20
2022-10-07T19:36:31.857Z,2.30
2022-10-07T19:38:58.823Z,2.53
2022-10-07T19:41:30.905Z,2.63
2022-10-07T19:43:58.497Z,2.25
2022-10-07T19:46:28.980Z,2.08
2022-10-07T19:48:58.228Z,2.25
2022-10-07T19:51:27.071Z,2.20
2022-10-07T19:53:53.951Z,2.45
2022-10-07T19:56:23.280Z,2.38
2022-10-07T19:58:55.401Z,2.22
2022-10-07T20:01:24.396Z,2.33
2022-10-07T20:04:03.139Z,2.28
2022-10-07T20:06:30.156Z,2.53
2022-10-07T20:08:57.193Z,2.55
2022-10-07T20:11:24.974Z,2.05
2022-10-07T20:13:53.511Z,1.75
2022-10-07T20:16:23.570Z,2.10
2022-10-07T20:18:58.351Z,1.80
2022-10-07T20:21:24.908Z,2.85
2022-10-07T20:23:53.751Z,2.63
2022-10-07T20:26:26.268Z,1.85
2022-10-07T20:28:58.006Z,2.50
2022-10-07T20:31:27.217Z,2.75
2022-10-07T20:33:55.790Z,2.42
2022-10-07T20:36:30.429Z,2.28
2022-10-07T20:39:46.341Z,2.30
2022-10-07T20:42:21.775Z,2.38
2022-10-07T20:44:49.545Z,2.45
2022-10-07T20:47:16.744Z,2.78
2022-10-07T20:49:43.378Z,2.97
2022-10-07T20:52:13.886Z,2.90
2022-10-07T20:54:40.534Z,2.72
2022-10-07T20:57:07.090Z,2.13
2022-10-07T20:59:33.726Z,2.72
2022-10-07T21:02:03.823Z,2.85
2022-10-07T21:04:33.450Z,2.78
2022-10-07T21:07:01.477Z,2.67
2022-10-07T21:09:28.182Z,3.08
2022-10-07T21:11:56.527Z,2.58
2022-10-07T21:14:23.233Z,2.45
2022-10-07T21:16:49.878Z,2.08
2022-10-07T21:19:17.009Z,2.60
2022-10-07T21:21:43.537Z,2.75
2022-10-07T21:24:10.172Z,2.22
2022-10-07T21:26:37.119Z,2.28
2022-10-07T21:29:06.931Z,2.60
2022-10-07T21:31:35.538Z,3.13
2022-10-07T21:34:07.511Z,2.30
2022-10-07T21:36:37.178Z,2.63
2022-10-07T21:39:04.667Z,2.38
2022-10-07T21:41:38.493Z,2.95
2022-10-07T21:44:10.779Z,3.15
2022-10-07T21:46:38.390Z,2.80
2022-10-07T21:49:06.143Z,2.35
2022-10-07T21:51:34.265Z,2.60
2022-10-07T21:54:01.837Z,2.95
2022-10-07T21:56:30.362Z,2.60
2022-10-07T21:58:59.740Z,2.05
2022-10-07T22:01:27.249Z,2.42
2022-10-07T22:03:56.133Z,3.03
2022-10-07T22:06:43.457Z,2.55
2022-10-07T22:09:11.040Z,2.88
2022-10-07T22:11:37.875Z,2.20
2022-10-07T22:14:07.555Z,2.95
2022-10-07T22:16:37.614Z,2.67
2022-10-07T22:19:05.301Z,2.92
2022-10-07T22:21:33.533Z,3.53
2022-10-07T22:24:02.878Z,2.47
2022-10-07T22:26:34.172Z,2.22
2022-10-07T22:29:01.236Z,2.47
2022-10-07T22:31:27.888Z,2.97
2022-10-07T22:33:57.230Z,2.72
2022-10-07T22:36:24.324Z,2.35
2022-10-07T22:38:50.947Z,3.15
2022-10-07T22:41:19.403Z,2.92
2022-10-07T22:43:47.508Z,2.75
2022-10-07T22:46:17.823Z,2.33
2022-10-07T22:48:48.438Z,2.42
2022-10-07T22:51:16.224Z,2.90
2022-10-07T22:53:48.036Z,2.47
2022-10-07T22:56:17.418Z,2.70
2022-10-07T22:58:48.912Z,2.65
2022-10-07T23:01:16.665Z,2.05
2022-10-07T23:03:44.109Z,1.98
2022-10-07T23:06:12.715Z,1.77
2022-10-07T23:08:39.703Z,2.30
2022-10-07T23:11:07.598Z,1.70
2022-10-07T23:13:35.974Z,3.00
2022-10-07T23:16:08.799Z,2.35
2022-10-07T23:18:35.420Z,2.00
2022-10-07T23:21:04.844Z,2.47
2022-10-07T23:23:36.294Z,2.10
2022-10-07T23:26:15.047Z,1.90
2022-10-07T23:28:41.889Z,2.25
2022-10-07T23:31:11.572Z,2.00
2022-10-07T23:33:38.278Z,1.98
2022-10-07T23:36:07.182Z,2.47
2022-10-07T23:38:34.225Z,2.55
2022-10-07T23:41:02.109Z,2.42
2022-10-07T23:43:31.039Z,2.03
2022-10-07T23:45:57.655Z,2.00
2022-10-07T23:48:24.331Z,2.13
2022-10-07T23:50:52.067Z,1.80
2022-10-07T23:53:19.935Z,1.88
2022-10-07T23:55:49.212Z,1.83
2022-10-07T23:58:17.613Z,2.92
